Terminal Aerodrome Forecast
Issued by NWS

Home | Current Version | Previous Version | Text Only | Print | Product List | Glossary On
Versions: 1 2 3 4 5 6 7 8 9 10 11 12 13 14 15
367
FTUS45 KFGZ 220520
TAFPGA
TAF
KPGA 220520Z 2206/2306 VRB06KT P6SM SCT100 SCT250
     FM222100 20006KT 4SM -SHRA BKN020 OVC030
     FM230000 17008KT 4SM -SHRA OVC020=

USA.gov is the U.S. government's official web portal to all federal, state and local government web resources and services.